createdAt,value
2019-03-27T00:01:55.903Z,5.90
2019-03-27T00:04:28.751Z,5.90
2019-03-27T00:07:04.943Z,6.00
2019-03-27T00:09:38.418Z,5.90
2019-03-27T00:12:11.331Z,5.90
2019-03-27T00:14:45.782Z,5.90
2019-03-27T00:17:18.369Z,5.90
2019-03-27T00:19:53.741Z,5.90
2019-03-27T00:22:26.314Z,5.80
2019-03-27T00:24:59.901Z,5.90
2019-03-27T00:27:33.847Z,5.80
2019-03-27T00:30:10.371Z,5.90
2019-03-27T00:32:43.944Z,5.80
2019-03-27T00:35:17.957Z,5.80
2019-03-27T00:37:52.151Z,5.80
2019-03-27T00:40:25.050Z,5.80
2019-03-27T00:42:58.640Z,5.80
2019-03-27T00:45:31.178Z,5.80
2019-03-27T00:48:05.375Z,5.80
2019-03-27T00:50:38.500Z,5.90
2019-03-27T00:53:12.207Z,5.90
2019-03-27T00:55:44.707Z,5.90
2019-03-27T00:58:18.930Z,5.90
2019-03-27T01:01:14.226Z,6.00
2019-03-27T01:03:46.801Z,6.00
2019-03-27T01:06:20.262Z,5.90
2019-03-27T01:08:53.829Z,5.80
2019-03-27T01:11:27.591Z,5.60
2019-03-27T01:14:03.350Z,5.50
2019-03-27T01:16:38.936Z,5.50
2019-03-27T01:19:13.823Z,5.40
2019-03-27T01:21:50.886Z,5.50
2019-03-27T01:24:24.764Z,5.50
2019-03-27T01:26:57.295Z,5.50
2019-03-27T01:29:30.363Z,5.50
2019-03-27T01:32:05.693Z,5.50
2019-03-27T01:34:41.135Z,5.50
2019-03-27T01:37:16.892Z,5.50
2019-03-27T01:39:50.611Z,5.60
2019-03-27T01:42:23.218Z,5.60
2019-03-27T01:44:56.315Z,5.60
2019-03-27T01:47:28.827Z,5.60
2019-03-27T01:50:02.480Z,5.70
2019-03-27T01:52:37.081Z,5.70
2019-03-27T01:55:10.930Z,5.60
2019-03-27T01:57:45.701Z,5.70
2019-03-27T02:00:19.422Z,5.60
2019-03-27T02:02:53.646Z,5.60
2019-03-27T02:05:26.320Z,5.60
2019-03-27T02:07:59.996Z,5.60
2019-03-27T02:10:32.545Z,5.60
2019-03-27T02:13:05.136Z,5.70
2019-03-27T02:15:38.978Z,5.70
2019-03-27T02:18:14.029Z,5.70
2019-03-27T02:20:48.743Z,5.70
2019-03-27T02:23:23.915Z,5.70
2019-03-27T02:25:56.465Z,5.70
2019-03-27T02:28:28.978Z,5.70
2019-03-27T02:31:02.206Z,5.80
2019-03-27T02:33:34.687Z,5.80
2019-03-27T02:36:07.171Z,5.80
2019-03-27T02:38:40.649Z,5.80
2019-03-27T02:41:14.638Z,5.80
2019-03-27T02:43:47.187Z,5.80
2019-03-27T02:46:25.148Z,5.80
2019-03-27T02:48:54.281Z,5.80
2019-03-27T02:51:26.765Z,5.90
2019-03-27T02:53:59.101Z,5.80
2019-03-27T02:56:32.065Z,5.80
2019-03-27T02:59:04.983Z,5.80
2019-03-27T03:01:37.470Z,5.80
2019-03-27T03:04:09.943Z,5.80
2019-03-27T03:06:42.410Z,5.70
2019-03-27T03:09:14.922Z,5.70
2019-03-27T03:11:47.877Z,5.70
2019-03-27T03:14:20.397Z,5.70
2019-03-27T03:16:52.867Z,5.70
2019-03-27T03:19:25.253Z,5.70
2019-03-27T03:21:58.293Z,5.70
2019-03-27T03:24:31.075Z,5.70
2019-03-27T03:27:04.094Z,5.80
2019-03-27T03:29:36.532Z,5.80
2019-03-27T03:32:09.395Z,5.90
2019-03-27T03:34:42.272Z,5.90
2019-03-27T03:37:15.321Z,5.90
2019-03-27T03:39:47.808Z,5.90
2019-03-27T03:42:20.657Z,5.90
2019-03-27T03:44:53.490Z,5.80
2019-03-27T03:47:26.080Z,5.90
2019-03-27T03:49:59.911Z,5.90
2019-03-27T03:52:32.390Z,5.90
2019-03-27T03:55:05.131Z,5.90
2019-03-27T03:57:39.323Z,5.90
2019-03-27T04:00:11.997Z,5.90
2019-03-27T04:02:46.838Z,5.90
2019-03-27T04:05:22.513Z,5.90
2019-03-27T04:07:54.968Z,5.90
2019-03-27T04:10:27.758Z,5.90
2019-03-27T04:13:01.291Z,5.90
2019-03-27T04:15:34.172Z,5.90
2019-03-27T04:18:07.234Z,5.80
2019-03-27T04:20:40.547Z,5.80
2019-03-27T04:23:12.987Z,5.80
2019-03-27T04:26:07.977Z,5.80
2019-03-27T04:28:21.132Z,5.80
2019-03-27T04:30:54.107Z,5.90
2019-03-27T04:33:27.390Z,5.90
2019-03-27T04:36:00.408Z,5.80
2019-03-27T04:38:33.392Z,5.80
2019-03-27T04:41:06.388Z,5.80
2019-03-27T04:43:39.189Z,5.80
2019-03-27T04:46:13.145Z,5.80
2019-03-27T04:48:46.086Z,5.80
2019-03-27T04:51:19.373Z,5.70
2019-03-27T04:53:53.893Z,5.70
2019-03-27T04:56:26.917Z,5.70
2019-03-27T04:58:59.368Z,5.80
2019-03-27T05:01:31.846Z,5.80
2019-03-27T05:04:06.485Z,5.80
2019-03-27T05:06:39.415Z,5.80
2019-03-27T05:09:12.433Z,5.80
2019-03-27T05:11:46.093Z,5.80
2019-03-27T05:14:19.082Z,5.80
2019-03-27T05:16:51.589Z,5.70
2019-03-27T05:19:23.976Z,5.80
2019-03-27T05:21:56.739Z,5.80
2019-03-27T05:24:29.230Z,5.80
2019-03-27T05:27:01.722Z,5.70
2019-03-27T05:29:34.671Z,5.70
2019-03-27T05:32:14.971Z,5.70
2019-03-27T05:34:53.099Z,5.70
2019-03-27T05:37:26.757Z,5.70
2019-03-27T05:39:59.722Z,5.80
2019-03-27T05:42:32.437Z,5.90
2019-03-27T05:45:08.504Z,6.00
2019-03-27T05:47:41.854Z,6.00
2019-03-27T05:50:19.786Z,6.10
2019-03-27T05:52:52.296Z,6.10
2019-03-27T05:55:26.581Z,6.20
2019-03-27T05:57:59.159Z,6.20
2019-03-27T06:00:33.481Z,6.20
2019-03-27T06:03:07.820Z,6.30
2019-03-27T06:05:41.790Z,6.40
2019-03-27T06:08:22.285Z,6.40
2019-03-27T06:10:54.757Z,6.50
2019-03-27T06:13:28.370Z,6.60
2019-03-27T06:16:00.800Z,6.60
2019-03-27T06:18:33.258Z,6.70
2019-03-27T06:21:06.655Z,6.70
2019-03-27T06:23:39.579Z,6.80
2019-03-27T06:26:17.750Z,6.90
2019-03-27T06:28:50.191Z,6.90
2019-03-27T06:31:23.550Z,6.90
2019-03-27T06:33:59.964Z,7.00
2019-03-27T06:36:32.778Z,7.10
2019-03-27T06:39:06.592Z,7.20
2019-03-27T06:41:39.657Z,7.20
2019-03-27T06:44:17.147Z,7.20
2019-03-27T06:46:49.652Z,7.20
2019-03-27T06:49:22.082Z,7.20
2019-03-27T06:51:55.552Z,7.20
2019-03-27T06:54:28.016Z,7.20
2019-03-27T06:57:01.361Z,7.30
2019-03-27T06:59:34.493Z,7.30
2019-03-27T07:02:07.425Z,7.20
2019-03-27T07:04:39.915Z,7.10
2019-03-27T07:07:12.822Z,7.00
2019-03-27T07:09:45.296Z,7.00
2019-03-27T07:12:21.351Z,7.00
2019-03-27T07:14:53.548Z,7.00
2019-03-27T07:17:26.662Z,7.10
2019-03-27T07:19:59.178Z,7.30
2019-03-27T07:22:32.542Z,7.60
2019-03-27T07:25:06.642Z,7.90
2019-03-27T07:27:39.128Z,8.10
2019-03-27T07:30:13.036Z,8.20
2019-03-27T07:32:45.412Z,8.30
2019-03-27T07:35:18.394Z,8.30
2019-03-27T07:37:51.330Z,8.20
2019-03-27T07:40:24.771Z,8.10
2019-03-27T07:42:57.246Z,8.10
2019-03-27T07:45:30.034Z,8.20
2019-03-27T07:48:02.466Z,8.20
2019-03-27T07:50:34.992Z,8.20
2019-03-27T07:53:08.352Z,8.20
2019-03-27T07:55:41.295Z,8.20
2019-03-27T07:58:14.114Z,8.30
2019-03-27T08:00:47.054Z,8.40
2019-03-27T08:03:20.616Z,8.40
2019-03-27T08:05:53.412Z,8.50
2019-03-27T08:08:26.305Z,8.70
2019-03-27T08:10:58.691Z,8.90
2019-03-27T08:13:31.145Z,9.10
2019-03-27T08:16:04.083Z,9.10
2019-03-27T08:18:37.627Z,9.10
2019-03-27T08:21:10.026Z,9.00
2019-03-27T08:23:43.003Z,8.90
2019-03-27T08:26:15.427Z,8.90
2019-03-27T08:28:48.291Z,9.00
2019-03-27T08:31:22.165Z,9.10
2019-03-27T08:33:55.392Z,9.20
2019-03-27T08:36:29.275Z,9.30
2019-03-27T08:39:03.750Z,9.70
2019-03-27T08:41:38.694Z,10.00
2019-03-27T08:44:12.498Z,10.00
2019-03-27T08:46:45.493Z,9.90
2019-03-27T08:49:22.322Z,10.00
2019-03-27T08:51:54.536Z,10.00
2019-03-27T08:54:28.630Z,10.20
2019-03-27T08:57:01.375Z,10.30
2019-03-27T08:59:35.381Z,10.50
2019-03-27T09:02:08.787Z,10.50
2019-03-27T09:04:41.730Z,10.50
2019-03-27T09:07:14.582Z,10.50
2019-03-27T09:09:47.627Z,10.50
2019-03-27T09:12:22.195Z,10.40
2019-03-27T09:14:56.186Z,10.40
2019-03-27T09:17:30.261Z,10.60
2019-03-27T09:20:04.374Z,11.00
2019-03-27T09:22:38.713Z,11.10
2019-03-27T09:25:12.575Z,11.10
2019-03-27T09:27:46.558Z,11.10
2019-03-27T09:30:20.483Z,11.30
2019-03-27T09:32:53.997Z,11.40
2019-03-27T09:35:30.209Z,11.40
2019-03-27T09:38:03.761Z,11.30
2019-03-27T09:40:36.857Z,11.30
2019-03-27T09:43:11.231Z,11.30
2019-03-27T09:45:43.906Z,11.00
2019-03-27T09:48:17.277Z,11.00
2019-03-27T09:50:51.385Z,11.40
2019-03-27T09:53:24.701Z,11.80
2019-03-27T09:55:57.371Z,12.20
2019-03-27T09:58:32.469Z,12.00
2019-03-27T10:01:07.439Z,11.90
2019-03-27T10:03:40.196Z,12.20
2019-03-27T10:06:14.109Z,12.70
2019-03-27T10:08:47.271Z,13.20
2019-03-27T10:11:23.851Z,13.10
2019-03-27T10:13:56.217Z,12.70
2019-03-27T10:16:30.355Z,12.70
2019-03-27T10:19:03.039Z,12.70
2019-03-27T10:21:36.147Z,12.20
2019-03-27T10:24:10.846Z,12.00
2019-03-27T10:26:45.481Z,12.20
2019-03-27T10:29:20.748Z,12.60
2019-03-27T10:31:56.277Z,12.70
2019-03-27T10:34:29.886Z,12.80
2019-03-27T10:37:03.655Z,12.70
2019-03-27T10:39:38.192Z,12.80
2019-03-27T10:42:11.720Z,12.70
2019-03-27T10:44:45.408Z,12.40
2019-03-27T10:47:18.989Z,12.40
2019-03-27T10:49:52.212Z,12.60
2019-03-27T10:52:26.135Z,13.00
2019-03-27T10:54:59.700Z,13.50
2019-03-27T10:57:33.636Z,13.60
2019-03-27T11:00:07.281Z,13.20
2019-03-27T11:02:41.585Z,12.90
2019-03-27T11:05:14.716Z,12.50
2019-03-27T11:07:47.870Z,12.70
2019-03-27T11:10:22.501Z,12.70
2019-03-27T11:12:55.545Z,12.50
2019-03-27T11:15:29.414Z,12.20
2019-03-27T11:18:02.781Z,11.80
2019-03-27T11:20:37.274Z,11.90
2019-03-27T11:23:11.896Z,11.70
2019-03-27T11:25:45.395Z,11.80
2019-03-27T11:28:18.171Z,12.10
2019-03-27T11:30:53.305Z,12.50
2019-03-27T11:33:28.952Z,13.20
2019-03-27T11:36:03.481Z,13.50
2019-03-27T11:38:37.671Z,13.50
2019-03-27T11:41:13.259Z,13.40
2019-03-27T11:43:54.797Z,13.50
2019-03-27T11:46:20.852Z,13.80
2019-03-27T11:48:54.200Z,13.80
2019-03-27T11:51:26.910Z,13.90
2019-03-27T11:54:01.509Z,13.60
2019-03-27T11:56:36.581Z,13.50
2019-03-27T11:59:10.514Z,13.60
2019-03-27T12:01:44.650Z,13.50
2019-03-27T12:04:18.773Z,13.50
2019-03-27T12:06:52.563Z,13.80
2019-03-27T12:09:26.084Z,14.20
2019-03-27T12:12:00.071Z,14.60
2019-03-27T12:14:33.768Z,14.90
2019-03-27T12:17:06.878Z,15.10
2019-03-27T12:19:39.828Z,15.20
2019-03-27T12:22:13.745Z,15.30
2019-03-27T12:24:46.922Z,15.40
2019-03-27T12:27:19.441Z,15.30
2019-03-27T12:29:52.644Z,14.90
2019-03-27T12:32:25.655Z,14.70
2019-03-27T12:34:58.379Z,14.40
2019-03-27T12:37:32.421Z,14.30
2019-03-27T12:40:11.505Z,14.40
2019-03-27T12:42:40.399Z,14.50
2019-03-27T12:45:13.717Z,14.50
2019-03-27T12:47:46.846Z,14.60
2019-03-27T12:50:20.639Z,14.40
2019-03-27T12:52:54.158Z,14.40
2019-03-27T12:55:27.041Z,14.40
2019-03-27T12:58:00.584Z,14.30
2019-03-27T13:00:35.680Z,14.10
2019-03-27T13:03:09.933Z,14.10
2019-03-27T13:05:43.017Z,14.20
2019-03-27T13:08:17.724Z,14.40
2019-03-27T13:10:51.322Z,14.40
2019-03-27T13:13:23.997Z,14.30
2019-03-27T13:15:57.649Z,14.40
2019-03-27T13:18:30.932Z,14.60
2019-03-27T13:21:05.951Z,14.80
2019-03-27T13:23:40.446Z,14.90
2019-03-27T13:26:13.586Z,14.80
2019-03-27T13:28:49.180Z,14.70
2019-03-27T13:31:21.595Z,14.90
2019-03-27T13:33:54.426Z,14.80
2019-03-27T13:36:27.838Z,14.90
2019-03-27T13:39:01.900Z,14.90
2019-03-27T13:41:37.651Z,14.90
2019-03-27T13:44:11.214Z,14.50
2019-03-27T13:46:44.175Z,14.40
2019-03-27T13:49:17.757Z,14.30
2019-03-27T13:51:51.015Z,13.90
2019-03-27T13:54:23.960Z,13.50
2019-03-27T13:56:57.014Z,13.40
2019-03-27T13:59:30.538Z,13.40
2019-03-27T14:02:04.815Z,13.40
2019-03-27T14:04:37.825Z,13.30
2019-03-27T14:07:10.460Z,13.40
2019-03-27T14:09:44.012Z,13.50
2019-03-27T14:12:17.017Z,13.50
2019-03-27T14:14:50.866Z,13.20
2019-03-27T14:17:24.370Z,13.10
2019-03-27T14:19:57.004Z,13.30
2019-03-27T14:22:29.655Z,13.60
2019-03-27T14:25:03.573Z,13.80
2019-03-27T14:27:37.572Z,13.90
2019-03-27T14:30:11.607Z,13.50
2019-03-27T14:32:44.535Z,13.20
2019-03-27T14:35:19.868Z,13.00
2019-03-27T14:37:54.294Z,12.90
2019-03-27T14:40:27.896Z,12.90
2019-03-27T14:43:01.198Z,12.90
2019-03-27T14:45:34.499Z,13.10
2019-03-27T14:48:07.665Z,13.50
2019-03-27T14:50:41.492Z,13.70
2019-03-27T14:53:14.355Z,13.50
2019-03-27T14:55:48.122Z,13.40
2019-03-27T14:58:23.540Z,13.30
2019-03-27T15:00:56.460Z,13.20
2019-03-27T15:03:29.280Z,13.00
2019-03-27T15:06:02.402Z,12.90
2019-03-27T15:08:35.681Z,13.00
2019-03-27T15:11:09.144Z,13.10
2019-03-27T15:13:42.311Z,13.30
2019-03-27T15:16:16.538Z,13.10
2019-03-27T15:18:52.509Z,13.10
2019-03-27T15:21:24.305Z,13.10
2019-03-27T15:23:57.967Z,12.90
2019-03-27T15:26:32.014Z,12.60
2019-03-27T15:29:05.064Z,12.30
2019-03-27T15:31:38.524Z,12.50
2019-03-27T15:34:12.012Z,12.70
2019-03-27T15:36:45.358Z,12.70
2019-03-27T15:39:19.271Z,12.70
2019-03-27T15:41:52.295Z,12.70
2019-03-27T15:44:26.546Z,12.70
2019-03-27T15:46:59.975Z,12.60
2019-03-27T15:49:33.298Z,12.50
2019-03-27T15:52:06.563Z,12.50
2019-03-27T15:54:40.520Z,12.50
2019-03-27T15:57:13.716Z,12.50
2019-03-27T15:59:48.343Z,12.50
2019-03-27T16:02:23.016Z,12.60
2019-03-27T16:04:56.470Z,12.40
2019-03-27T16:07:31.464Z,12.20
2019-03-27T16:10:04.925Z,12.10
2019-03-27T16:12:37.940Z,12.00
2019-03-27T16:15:11.615Z,11.90
2019-03-27T16:17:45.455Z,11.90
2019-03-27T16:20:20.308Z,11.90
2019-03-27T16:22:54.175Z,12.00
2019-03-27T16:25:27.787Z,12.00
2019-03-27T16:28:03.799Z,11.90
2019-03-27T16:30:37.092Z,12.00
2019-03-27T16:33:10.195Z,11.80
2019-03-27T16:35:44.170Z,11.70
2019-03-27T16:38:17.228Z,11.50
2019-03-27T16:40:55.248Z,11.50
2019-03-27T16:43:28.937Z,11.60
2019-03-27T16:46:03.308Z,11.50
2019-03-27T16:48:36.475Z,11.50
2019-03-27T16:51:10.499Z,11.40
2019-03-27T16:53:43.547Z,11.30
2019-03-27T16:56:17.331Z,11.20
2019-03-27T16:58:51.978Z,11.20
2019-03-27T17:01:25.559Z,11.20
2019-03-27T17:03:58.792Z,11.20
2019-03-27T17:06:32.296Z,11.20
2019-03-27T17:09:09.185Z,11.20
2019-03-27T17:11:42.309Z,11.10
2019-03-27T17:14:15.106Z,11.00
2019-03-27T17:16:47.978Z,11.00
2019-03-27T17:19:21.045Z,10.90
2019-03-27T17:21:54.064Z,10.80
2019-03-27T17:24:27.471Z,10.70
2019-03-27T17:27:00.997Z,10.70
2019-03-27T17:29:34.386Z,10.50
2019-03-27T17:32:08.512Z,10.50
2019-03-27T17:34:41.188Z,10.40
2019-03-27T17:37:13.838Z,10.30
2019-03-27T17:39:46.585Z,10.20
2019-03-27T17:42:19.364Z,10.20
2019-03-27T17:44:52.477Z,10.10
2019-03-27T17:47:26.037Z,10.00
2019-03-27T17:50:02.240Z,10.00
2019-03-27T17:52:38.145Z,9.90
2019-03-27T17:55:11.672Z,9.90
2019-03-27T17:57:45.789Z,9.90
2019-03-27T18:00:23.856Z,9.80
2019-03-27T18:02:56.622Z,9.70
2019-03-27T18:05:30.179Z,9.70
2019-03-27T18:08:05.760Z,9.70
2019-03-27T18:10:43.056Z,9.70
2019-03-27T18:13:18.441Z,9.60
2019-03-27T18:15:51.347Z,9.60
2019-03-27T18:18:25.588Z,9.60
2019-03-27T18:20:58.777Z,9.50
2019-03-27T18:23:44.858Z,9.40
2019-03-27T18:26:07.904Z,9.50
2019-03-27T18:28:41.617Z,9.40
2019-03-27T18:31:15.191Z,9.40
2019-03-27T18:33:47.777Z,9.40
2019-03-27T18:36:22.419Z,9.40
2019-03-27T18:38:55.443Z,9.40
2019-03-27T18:41:29.253Z,9.40
2019-03-27T18:44:03.533Z,9.50
2019-03-27T18:46:36.754Z,9.50
2019-03-27T18:49:10.738Z,9.50
2019-03-27T18:51:45.277Z,9.50
2019-03-27T18:54:18.078Z,9.50
2019-03-27T18:56:52.126Z,9.40
2019-03-27T18:59:24.995Z,9.50
2019-03-27T19:01:58.085Z,9.50
2019-03-27T19:04:32.956Z,9.60
2019-03-27T19:07:06.088Z,9.60
2019-03-27T19:09:39.211Z,9.60
2019-03-27T19:12:12.507Z,9.60
2019-03-27T19:14:45.133Z,9.60
2019-03-27T19:17:18.573Z,9.60
2019-03-27T19:19:51.284Z,9.50
2019-03-27T19:22:25.569Z,9.50
2019-03-27T19:24:59.575Z,9.50
2019-03-27T19:27:33.918Z,9.40
2019-03-27T19:30:07.350Z,9.40
2019-03-27T19:32:40.946Z,9.30
2019-03-27T19:35:16.070Z,9.30
2019-03-27T19:37:50.443Z,9.30
2019-03-27T19:40:26.049Z,9.20
2019-03-27T19:42:58.728Z,9.20
2019-03-27T19:45:33.009Z,9.20
2019-03-27T19:48:06.951Z,9.20
2019-03-27T19:50:40.308Z,9.10
2019-03-27T19:53:13.649Z,9.10
2019-03-27T19:55:48.515Z,9.10
2019-03-27T19:58:23.031Z,9.00
2019-03-27T20:00:56.648Z,8.90
2019-03-27T20:03:30.396Z,8.90
2019-03-27T20:06:03.151Z,8.80
2019-03-27T20:08:36.076Z,8.80
2019-03-27T20:11:09.249Z,8.70
2019-03-27T20:13:43.636Z,8.60
2019-03-27T20:16:17.719Z,8.50
2019-03-27T20:18:51.015Z,8.40
2019-03-27T20:21:24.745Z,8.40
2019-03-27T20:23:57.772Z,8.40
2019-03-27T20:26:31.410Z,8.40
2019-03-27T20:29:04.928Z,8.40
2019-03-27T20:31:37.238Z,8.40
2019-03-27T20:34:10.479Z,8.30
2019-03-27T20:36:43.267Z,8.30
2019-03-27T20:39:16.214Z,8.30
2019-03-27T20:41:49.031Z,8.30
2019-03-27T20:44:22.821Z,8.30
2019-03-27T20:46:55.706Z,8.30
2019-03-27T20:49:28.507Z,8.30
2019-03-27T20:52:01.990Z,8.30
2019-03-27T20:54:35.228Z,8.30
2019-03-27T20:57:08.104Z,8.30
2019-03-27T20:59:41.347Z,8.20
2019-03-27T21:02:14.264Z,8.30
2019-03-27T21:04:47.246Z,8.30
2019-03-27T21:07:20.130Z,8.30
2019-03-27T21:09:53.630Z,8.30
2019-03-27T21:12:26.507Z,8.30
2019-03-27T21:15:00.390Z,8.20
2019-03-27T21:17:32.820Z,8.20
2019-03-27T21:20:06.000Z,8.20
2019-03-27T21:22:39.246Z,8.20
2019-03-27T21:25:12.266Z,8.20
2019-03-27T21:27:45.599Z,8.20
2019-03-27T21:30:18.283Z,8.10
2019-03-27T21:32:51.735Z,8.10
2019-03-27T21:35:24.208Z,8.10
2019-03-27T21:37:56.629Z,8.10
2019-03-27T21:40:29.466Z,8.10
2019-03-27T21:43:03.165Z,8.00
2019-03-27T21:45:36.561Z,8.00
2019-03-27T21:48:09.809Z,8.00
2019-03-27T21:50:42.648Z,8.00
2019-03-27T21:53:15.893Z,7.90
2019-03-27T21:55:48.702Z,7.90
2019-03-27T21:58:21.623Z,7.90
2019-03-27T22:00:54.915Z,7.90
2019-03-27T22:03:27.883Z,8.00
2019-03-27T22:06:01.927Z,7.90
2019-03-27T22:08:34.946Z,7.90
2019-03-27T22:11:07.448Z,7.90
2019-03-27T22:13:41.268Z,7.90
2019-03-27T22:16:13.749Z,7.90
2019-03-27T22:18:46.670Z,7.80
2019-03-27T22:21:19.439Z,7.70
2019-03-27T22:23:51.797Z,7.70
2019-03-27T22:26:24.195Z,7.80
2019-03-27T22:28:57.477Z,7.70
2019-03-27T22:31:30.804Z,7.60
2019-03-27T22:34:03.117Z,7.50
2019-03-27T22:36:36.110Z,7.50
2019-03-27T22:39:10.236Z,7.50
2019-03-27T22:41:43.014Z,7.50
2019-03-27T22:44:15.479Z,7.50
2019-03-27T22:46:48.736Z,7.50
2019-03-27T22:49:21.586Z,7.50
2019-03-27T22:51:54.855Z,7.50
2019-03-27T22:54:27.309Z,7.50
2019-03-27T22:57:01.028Z,7.40
2019-03-27T22:59:35.095Z,7.50
2019-03-27T23:02:07.491Z,7.40
2019-03-27T23:04:40.400Z,7.40
2019-03-27T23:07:13.407Z,7.40
2019-03-27T23:09:45.899Z,7.40
2019-03-27T23:12:18.757Z,7.40
2019-03-27T23:14:52.979Z,7.40
2019-03-27T23:17:25.376Z,7.40
2019-03-27T23:19:58.298Z,7.40
2019-03-27T23:22:31.181Z,7.40
2019-03-27T23:25:04.175Z,7.40
2019-03-27T23:27:36.646Z,7.40
2019-03-27T23:30:10.083Z,7.40
2019-03-27T23:32:43.010Z,7.40
2019-03-27T23:35:16.106Z,7.40
2019-03-27T23:37:48.821Z,7.40
2019-03-27T23:40:22.342Z,7.40
2019-03-27T23:42:54.756Z,7.30
2019-03-27T23:45:27.258Z,7.30
2019-03-27T23:48:00.013Z,7.30
2019-03-27T23:50:32.951Z,7.30
2019-03-27T23:53:06.178Z,7.30
2019-03-27T23:55:38.602Z,7.30
2019-03-27T23:58:11.513Z,7.30
